sensor_id;sensor_type;location;lat;lon;timestamp;pressure;altitude;pressure_sealevel;temperature;humidity
72677;BME280;60755;51.374;10.662;2023-11-18T00:00:13;97873.66;;;3.82;95.28
72677;BME280;60755;51.374;10.662;2023-11-18T00:02:42;97875.75;;;4.16;94.35
72677;BME280;60755;51.374;10.662;2023-11-18T00:05:09;97865.34;;;3.86;95.62
72677;BME280;60755;51.374;10.662;2023-11-18T00:07:36;97871.66;;;3.84;95.12
72677;BME280;60755;51.374;10.662;2023-11-18T00:10:04;97875.50;;;3.73;96.13
72677;BME280;60755;51.374;10.662;2023-11-18T00:12:32;97865.47;;;3.70;96.64
72677;BME280;60755;51.374;10.662;2023-11-18T00:15:00;97870.81;;;3.69;96.05
72677;BME280;60755;51.374;10.662;2023-11-18T00:17:30;97869.00;;;3.77;96.31
72677;BME280;60755;51.374;10.662;2023-11-18T00:19:58;97864.13;;;3.51;96.44
72677;BME280;60755;51.374;10.662;2023-11-18T00:22:24;97864.00;;;3.30;96.43
72677;BME280;60755;51.374;10.662;2023-11-18T00:24:53;97867.31;;;3.16;97.19
72677;BME280;60755;51.374;10.662;2023-11-18T00:27:20;97867.53;;;3.06;96.16
72677;BME280;60755;51.374;10.662;2023-11-18T00:29:50;97881.25;;;2.92;97.30
72677;BME280;60755;51.374;10.662;2023-11-18T00:32:18;97881.91;;;2.86;98.90
72677;BME280;60755;51.374;10.662;2023-11-18T00:34:47;97879.94;;;2.88;97.55
72677;BME280;60755;51.374;10.662;2023-11-18T00:37:14;97883.53;;;2.87;99.08
72677;BME280;60755;51.374;10.662;2023-11-18T00:39:41;97881.34;;;2.67;97.56
72677;BME280;60755;51.374;10.662;2023-11-18T00:42:08;97888.38;;;2.50;99.78
72677;BME280;60755;51.374;10.662;2023-11-18T00:44:35;97885.31;;;2.47;99.19
72677;BME280;60755;51.374;10.662;2023-11-18T00:47:02;97889.66;;;2.55;100.00
72677;BME280;60755;51.374;10.662;2023-11-18T00:49:29;97894.88;;;2.46;98.74
72677;BME280;60755;51.374;10.662;2023-11-18T00:51:58;97892.00;;;2.33;100.00
72677;BME280;60755;51.374;10.662;2023-11-18T00:54:25;97894.94;;;2.22;100.00
72677;BME280;60755;51.374;10.662;2023-11-18T00:56:52;97900.56;;;2.50;100.00
72677;BME280;60755;51.374;10.662;2023-11-18T00:59:19;97897.66;;;2.37;100.00
72677;BME280;60755;51.374;10.662;2023-11-18T01:01:46;97898.50;;;2.29;100.00
72677;BME280;60755;51.374;10.662;2023-11-18T01:04:14;97897.53;;;2.14;100.00
72677;BME280;60755;51.374;10.662;2023-11-18T01:06:42;97894.94;;;2.14;100.00
72677;BME280;60755;51.374;10.662;2023-11-18T01:09:10;97905.81;;;2.26;100.00
72677;BME280;60755;51.374;10.662;2023-11-18T01:11:37;97915.00;;;2.92;100.00
72677;BME280;60755;51.374;10.662;2023-11-18T01:14:05;97913.28;;;2.68;100.00
72677;BME280;60755;51.374;10.662;2023-11-18T01:16:32;97917.72;;;2.51;100.00
72677;BME280;60755;51.374;10.662;2023-11-18T01:19:00;97920.34;;;2.90;100.00
72677;BME280;60755;51.374;10.662;2023-11-18T01:21:27;97925.50;;;3.29;100.00
72677;BME280;60755;51.374;10.662;2023-11-18T01:23:54;97924.22;;;3.25;99.44
72677;BME280;60755;51.374;10.662;2023-11-18T01:26:23;97929.69;;;3.39;100.00
72677;BME280;60755;51.374;10.662;2023-11-18T01:28:49;97925.44;;;3.60;100.00
72677;BME280;60755;51.374;10.662;2023-11-18T01:31:16;97936.78;;;3.68;99.11
72677;BME280;60755;51.374;10.662;2023-11-18T01:33:43;97930.66;;;3.83;99.28
72677;BME280;60755;51.374;10.662;2023-11-18T01:36:11;97940.19;;;3.91;98.37
72677;BME280;60755;51.374;10.662;2023-11-18T01:38:38;97950.25;;;3.94;97.94
72677;BME280;60755;51.374;10.662;2023-11-18T01:41:06;97943.03;;;4.19;96.80
72677;BME280;60755;51.374;10.662;2023-11-18T01:43:36;97947.56;;;4.25;95.92
72677;BME280;60755;51.374;10.662;2023-11-18T01:46:08;97944.28;;;4.23;96.46
72677;BME280;60755;51.374;10.662;2023-11-18T01:48:39;97943.50;;;4.22;95.93
72677;BME280;60755;51.374;10.662;2023-11-18T01:51:08;97949.88;;;4.20;96.14
72677;BME280;60755;51.374;10.662;2023-11-18T01:53:38;97939.75;;;4.25;94.96
72677;BME280;60755;51.374;10.662;2023-11-18T01:56:07;97943.63;;;4.06;94.38
72677;BME280;60755;51.374;10.662;2023-11-18T01:58:37;97945.50;;;3.98;95.43
72677;BME280;60755;51.374;10.662;2023-11-18T02:01:04;97943.19;;;3.80;95.97
72677;BME280;60755;51.374;10.662;2023-11-18T02:03:34;97945.16;;;3.78;96.24
72677;BME280;60755;51.374;10.662;2023-11-18T02:06:02;97949.19;;;3.80;98.13
72677;BME280;60755;51.374;10.662;2023-11-18T02:08:31;97953.91;;;4.00;96.79
72677;BME280;60755;51.374;10.662;2023-11-18T02:11:08;97954.22;;;4.05;96.57
72677;BME280;60755;51.374;10.662;2023-11-18T02:13:42;97960.97;;;4.14;96.60
72677;BME280;60755;51.374;10.662;2023-11-18T02:16:12;97958.91;;;4.24;96.25
72677;BME280;60755;51.374;10.662;2023-11-18T02:18:41;97955.34;;;4.40;95.31
72677;BME280;60755;51.374;10.662;2023-11-18T02:21:10;97961.72;;;4.37;95.25
72677;BME280;60755;51.374;10.662;2023-11-18T02:23:40;97958.13;;;4.38;94.84
72677;BME280;60755;51.374;10.662;2023-11-18T02:26:09;97953.63;;;4.32;95.11
72677;BME280;60755;51.374;10.662;2023-11-18T02:28:36;97953.00;;;4.30;95.66
72677;BME280;60755;51.374;10.662;2023-11-18T02:31:09;97950.06;;;4.33;95.42
72677;BME280;60755;51.374;10.662;2023-11-18T02:33:44;97956.53;;;4.37;94.57
72677;BME280;60755;51.374;10.662;2023-11-18T02:36:21;97956.78;;;4.28;94.78
72677;BME280;60755;51.374;10.662;2023-11-18T02:38:50;97958.47;;;4.20;95.07
72677;BME280;60755;51.374;10.662;2023-11-18T02:41:22;97957.13;;;4.25;95.03
72677;BME280;60755;51.374;10.662;2023-11-18T02:43:50;97947.19;;;4.28;95.31
72677;BME280;60755;51.374;10.662;2023-11-18T02:46:18;97966.91;;;4.22;95.56
72677;BME280;60755;51.374;10.662;2023-11-18T02:48:46;97963.38;;;4.15;94.52
72677;BME280;60755;51.374;10.662;2023-11-18T02:51:14;97965.53;;;3.89;94.61
72677;BME280;60755;51.374;10.662;2023-11-18T02:53:42;97964.13;;;3.86;95.24
72677;BME280;60755;51.374;10.662;2023-11-18T02:56:10;97963.63;;;3.60;95.93
72677;BME280;60755;51.374;10.662;2023-11-18T02:58:39;97959.47;;;3.51;96.29
72677;BME280;60755;51.374;10.662;2023-11-18T03:01:06;97957.53;;;3.45;97.15
72677;BME280;60755;51.374;10.662;2023-11-18T03:03:33;97957.94;;;3.33;97.00
72677;BME280;60755;51.374;10.662;2023-11-18T03:06:01;97960.78;;;3.16;98.12
72677;BME280;60755;51.374;10.662;2023-11-18T03:08:28;97955.69;;;2.99;97.48
72677;BME280;60755;51.374;10.662;2023-11-18T03:10:55;97959.91;;;2.92;98.76
72677;BME280;60755;51.374;10.662;2023-11-18T03:13:24;97953.59;;;2.87;100.00
72677;BME280;60755;51.374;10.662;2023-11-18T03:15:53;97961.00;;;3.06;100.00
72677;BME280;60755;51.374;10.662;2023-11-18T03:18:21;97951.47;;;3.29;100.00
72677;BME280;60755;51.374;10.662;2023-11-18T03:20:50;97951.13;;;3.32;100.00
72677;BME280;60755;51.374;10.662;2023-11-18T03:23:17;97953.09;;;3.30;100.00
72677;BME280;60755;51.374;10.662;2023-11-18T03:25:44;97953.28;;;3.21;100.00
72677;BME280;60755;51.374;10.662;2023-11-18T03:28:12;97945.34;;;3.22;100.00
72677;BME280;60755;51.374;10.662;2023-11-18T03:30:40;97940.16;;;3.22;100.00
72677;BME280;60755;51.374;10.662;2023-11-18T03:33:09;97955.22;;;3.27;100.00
72677;BME280;60755;51.374;10.662;2023-11-18T03:35:36;97953.69;;;3.41;100.00
72677;BME280;60755;51.374;10.662;2023-11-18T03:38:04;97956.59;;;3.46;100.00
72677;BME280;60755;51.374;10.662;2023-11-18T03:40:31;97953.69;;;3.41;100.00
72677;BME280;60755;51.374;10.662;2023-11-18T03:43:01;97950.25;;;3.71;100.00
72677;BME280;60755;51.374;10.662;2023-11-18T03:45:29;97957.13;;;3.87;99.49
72677;BME280;60755;51.374;10.662;2023-11-18T03:47:56;97944.38;;;3.77;98.45
72677;BME280;60755;51.374;10.662;2023-11-18T03:50:25;97946.59;;;4.03;97.56
72677;BME280;60755;51.374;10.662;2023-11-18T03:52:52;97946.41;;;4.05;97.48
72677;BME280;60755;51.374;10.662;2023-11-18T03:55:19;97941.66;;;4.08;97.30
72677;BME280;60755;51.374;10.662;2023-11-18T03:57:47;97948.94;;;4.13;97.10
72677;BME280;60755;51.374;10.662;2023-11-18T04:00:16;97936.16;;;4.26;96.29
72677;BME280;60755;51.374;10.662;2023-11-18T04:02:44;97935.72;;;3.77;97.90
72677;BME280;60755;51.374;10.662;2023-11-18T04:05:12;97941.34;;;3.65;97.34
72677;BME280;60755;51.374;10.662;2023-11-18T04:07:41;97943.41;;;3.47;98.90
72677;BME280;60755;51.374;10.662;2023-11-18T04:10:09;97942.84;;;3.37;98.54
72677;BME280;60755;51.374;10.662;2023-11-18T04:12:37;97951.53;;;3.21;98.99
72677;BME280;60755;51.374;10.662;2023-11-18T04:15:05;97952.69;;;3.11;99.38
72677;BME280;60755;51.374;10.662;2023-11-18T04:17:33;97953.13;;;2.91;100.00
72677;BME280;60755;51.374;10.662;2023-11-18T04:20:00;97954.22;;;2.89;100.00
72677;BME280;60755;51.374;10.662;2023-11-18T04:22:30;97954.22;;;2.89;100.00
72677;BME280;60755;51.374;10.662;2023-11-18T04:24:59;97951.38;;;2.75;100.00
72677;BME280;60755;51.374;10.662;2023-11-18T04:27:26;97954.47;;;2.71;100.00
72677;BME280;60755;51.374;10.662;2023-11-18T04:29:53;97958.84;;;2.70;100.00
72677;BME280;60755;51.374;10.662;2023-11-18T04:32:21;97960.47;;;2.71;100.00
72677;BME280;60755;51.374;10.662;2023-11-18T04:34:48;97964.53;;;2.74;100.00
72677;BME280;60755;51.374;10.662;2023-11-18T04:37:17;97967.59;;;2.77;100.00
72677;BME280;60755;51.374;10.662;2023-11-18T04:39:44;97960.59;;;2.86;100.00
72677;BME280;60755;51.374;10.662;2023-11-18T04:42:13;97969.97;;;2.95;100.00
72677;BME280;60755;51.374;10.662;2023-11-18T04:44:41;97968.75;;;3.14;100.00
72677;BME280;60755;51.374;10.662;2023-11-18T04:47:09;97970.69;;;3.12;100.00
72677;BME280;60755;51.374;10.662;2023-11-18T04:49:36;97964.16;;;3.24;100.00
72677;BME280;60755;51.374;10.662;2023-11-18T04:52:04;97966.38;;;3.35;100.00
72677;BME280;60755;51.374;10.662;2023-11-18T04:54:32;97954.94;;;3.45;100.00
72677;BME280;60755;51.374;10.662;2023-11-18T04:56:59;97956.81;;;3.59;100.00
72677;BME280;60755;51.374;10.662;2023-11-18T04:59:28;97956.53;;;3.54;100.00
72677;BME280;60755;51.374;10.662;2023-11-18T05:01:56;97957.63;;;3.59;100.00
72677;BME280;60755;51.374;10.662;2023-11-18T05:04:23;97953.34;;;3.67;100.00
72677;BME280;60755;51.374;10.662;2023-11-18T05:06:51;97948.09;;;3.75;100.00
72677;BME280;60755;51.374;10.662;2023-11-18T05:09:18;97939.38;;;3.68;100.00
72677;BME280;60755;51.374;10.662;2023-11-18T05:11:46;97941.09;;;3.98;99.92
72677;BME280;60755;51.374;10.662;2023-11-18T05:14:13;97944.94;;;3.87;98.70
72677;BME280;60755;51.374;10.662;2023-11-18T05:16:44;97929.81;;;4.06;98.37
72677;BME280;60755;51.374;10.662;2023-11-18T05:19:11;97938.97;;;4.02;97.54
72677;BME280;60755;51.374;10.662;2023-11-18T05:21:40;97934.00;;;3.92;97.59
72677;BME280;60755;51.374;10.662;2023-11-18T05:24:08;97934.16;;;3.90;97.91
72677;BME280;60755;51.374;10.662;2023-11-18T05:26:35;97936.16;;;3.88;97.42
72677;BME280;60755;51.374;10.662;2023-11-18T05:29:03;97932.81;;;3.80;97.89
72677;BME280;60755;51.374;10.662;2023-11-18T05:31:30;97933.03;;;4.08;97.26
72677;BME280;60755;51.374;10.662;2023-11-18T05:34:00;97935.56;;;4.01;97.83
72677;BME280;60755;51.374;10.662;2023-11-18T05:36:28;97932.78;;;4.03;97.37
72677;BME280;60755;51.374;10.662;2023-11-18T05:39:03;97924.81;;;4.04;97.09
72677;BME280;60755;51.374;10.662;2023-11-18T05:41:31;97932.91;;;3.86;96.92
72677;BME280;60755;51.374;10.662;2023-11-18T05:44:01;97929.59;;;3.92;96.81
72677;BME280;60755;51.374;10.662;2023-11-18T05:46:28;97931.94;;;3.87;97.01
72677;BME280;60755;51.374;10.662;2023-11-18T05:48:56;97925.75;;;3.88;97.45
72677;BME280;60755;51.374;10.662;2023-11-18T05:51:27;97932.91;;;3.86;97.64
72677;BME280;60755;51.374;10.662;2023-11-18T05:53:55;97919.63;;;4.19;97.34
72677;BME280;60755;51.374;10.662;2023-11-18T05:56:22;97923.38;;;4.16;96.77
72677;BME280;60755;51.374;10.662;2023-11-18T05:58:50;97928.06;;;3.83;97.25
72677;BME280;60755;51.374;10.662;2023-11-18T06:01:19;97931.31;;;3.85;97.53
72677;BME280;60755;51.374;10.662;2023-11-18T06:03:46;97944.56;;;3.90;97.92
72677;BME280;60755;51.374;10.662;2023-11-18T06:06:15;97939.84;;;3.71;97.38
72677;BME280;60755;51.374;10.662;2023-11-18T06:08:44;97944.81;;;3.81;96.78
72677;BME280;60755;51.374;10.662;2023-11-18T06:11:13;97946.59;;;3.80;97.31
72677;BME280;60755;51.374;10.662;2023-11-18T06:13:42;97951.88;;;3.72;97.55
72677;BME280;60755;51.374;10.662;2023-11-18T06:16:12;97949.56;;;3.77;97.09
72677;BME280;60755;51.374;10.662;2023-11-18T06:18:42;97946.19;;;3.69;97.48
72677;BME280;60755;51.374;10.662;2023-11-18T06:21:11;97945.63;;;3.81;97.99
72677;BME280;60755;51.374;10.662;2023-11-18T06:23:40;97943.59;;;3.91;96.41
72677;BME280;60755;51.374;10.662;2023-11-18T06:26:09;97948.63;;;3.93;96.67
72677;BME280;60755;51.374;10.662;2023-11-18T06:28:38;97948.03;;;3.83;96.37
72677;BME280;60755;51.374;10.662;2023-11-18T06:31:06;97949.75;;;3.45;97.38
72677;BME280;60755;51.374;10.662;2023-11-18T06:33:38;97951.84;;;3.49;98.43
72677;BME280;60755;51.374;10.662;2023-11-18T06:36:09;97954.63;;;3.48;98.34
72677;BME280;60755;51.374;10.662;2023-11-18T06:38:37;97958.44;;;3.60;97.50
72677;BME280;60755;51.374;10.662;2023-11-18T06:41:04;97970.13;;;3.64;96.96
72677;BME280;60755;51.374;10.662;2023-11-18T06:43:36;97972.97;;;3.77;96.79
72677;BME280;60755;51.374;10.662;2023-11-18T06:46:21;97966.28;;;3.75;97.38
72677;BME280;60755;51.374;10.662;2023-11-18T06:48:49;97970.81;;;3.81;97.12
72677;BME280;60755;51.374;10.662;2023-11-18T06:51:20;97980.41;;;3.80;96.62
72677;BME280;60755;51.374;10.662;2023-11-18T06:53:49;97989.34;;;3.78;95.87
72677;BME280;60755;51.374;10.662;2023-11-18T06:56:17;97992.41;;;3.81;96.02
72677;BME280;60755;51.374;10.662;2023-11-18T06:58:45;97986.16;;;3.90;95.68
72677;BME280;60755;51.374;10.662;2023-11-18T07:01:13;97984.91;;;3.86;95.99
72677;BME280;60755;51.374;10.662;2023-11-18T07:03:41;97988.50;;;3.85;95.71
72677;BME280;60755;51.374;10.662;2023-11-18T07:06:08;97992.72;;;3.86;95.76
72677;BME280;60755;51.374;10.662;2023-11-18T07:08:35;97992.66;;;3.95;96.04
72677;BME280;60755;51.374;10.662;2023-11-18T07:11:03;97996.56;;;3.90;95.97
72677;BME280;60755;51.374;10.662;2023-11-18T07:13:32;97984.91;;;3.86;96.86
72677;BME280;60755;51.374;10.662;2023-11-18T07:16:01;97989.44;;;3.84;96.58
72677;BME280;60755;51.374;10.662;2023-11-18T07:18:31;98003.75;;;3.88;96.00
72677;BME280;60755;51.374;10.662;2023-11-18T07:20:59;98008.31;;;3.86;96.09
72677;BME280;60755;51.374;10.662;2023-11-18T07:23:26;98005.31;;;3.35;97.08
72677;BME280;60755;51.374;10.662;2023-11-18T07:25:53;98008.81;;;3.51;95.86
72677;BME280;60755;51.374;10.662;2023-11-18T07:28:22;98006.53;;;3.56;96.96
72677;BME280;60755;51.374;10.662;2023-11-18T07:30:49;98016.25;;;3.62;95.41
72677;BME280;60755;51.374;10.662;2023-11-18T07:33:18;98014.19;;;3.49;96.00
72677;BME280;60755;51.374;10.662;2023-11-18T07:35:46;98021.50;;;3.54;95.15
72677;BME280;60755;51.374;10.662;2023-11-18T07:38:14;98025.41;;;3.50;96.32
72677;BME280;60755;51.374;10.662;2023-11-18T07:40:42;98028.19;;;3.48;96.28
72677;BME280;60755;51.374;10.662;2023-11-18T07:43:11;98026.38;;;3.49;95.53
72677;BME280;60755;51.374;10.662;2023-11-18T07:45:39;98031.09;;;3.53;96.10
72677;BME280;60755;51.374;10.662;2023-11-18T07:48:08;98033.09;;;3.66;96.68
72677;BME280;60755;51.374;10.662;2023-11-18T07:50:40;98033.06;;;3.74;95.64
72677;BME280;60755;51.374;10.662;2023-11-18T07:53:08;98035.50;;;3.99;94.77
72677;BME280;60755;51.374;10.662;2023-11-18T07:55:35;98024.25;;;4.29;93.74
72677;BME280;60755;51.374;10.662;2023-11-18T07:58:05;98026.28;;;4.57;92.68
72677;BME280;60755;51.374;10.662;2023-11-18T08:00:37;98020.03;;;4.81;90.99
72677;BME280;60755;51.374;10.662;2023-11-18T08:03:05;98017.34;;;4.89;90.00
72677;BME280;60755;51.374;10.662;2023-11-18T08:05:35;98008.81;;;4.80;90.02
72677;BME280;60755;51.374;10.662;2023-11-18T08:08:03;98012.69;;;4.84;89.42
72677;BME280;60755;51.374;10.662;2023-11-18T08:10:31;98008.19;;;4.78;90.06
72677;BME280;60755;51.374;10.662;2023-11-18T08:12:58;98007.44;;;4.69;89.64
72677;BME280;60755;51.374;10.662;2023-11-18T08:15:26;98003.06;;;4.70;90.47
72677;BME280;60755;51.374;10.662;2023-11-18T08:17:55;98011.63;;;4.56;91.54
72677;BME280;60755;51.374;10.662;2023-11-18T08:20:22;98013.84;;;4.96;91.25
72677;BME280;60755;51.374;10.662;2023-11-18T08:22:51;98018.16;;;4.89;91.24
72677;BME280;60755;51.374;10.662;2023-11-18T08:25:20;98025.25;;;5.10;89.06
72677;BME280;60755;51.374;10.662;2023-11-18T08:27:47;98030.69;;;4.71;90.66
72677;BME280;60755;51.374;10.662;2023-11-18T08:30:15;98031.53;;;5.16;89.21
72677;BME280;60755;51.374;10.662;2023-11-18T08:32:44;98036.19;;;5.20;87.44
72677;BME280;60755;51.374;10.662;2023-11-18T08:35:12;98025.34;;;5.17;87.68
72677;BME280;60755;51.374;10.662;2023-11-18T08:37:41;98031.69;;;5.29;87.14
72677;BME280;60755;51.374;10.662;2023-11-18T08:40:09;98026.13;;;5.47;86.29
72677;BME280;60755;51.374;10.662;2023-11-18T08:42:43;98031.34;;;5.47;86.79
72677;BME280;60755;51.374;10.662;2023-11-18T08:45:15;98026.56;;;5.50;86.92
72677;BME280;60755;51.374;10.662;2023-11-18T08:47:44;98028.31;;;5.79;86.76
72677;BME280;60755;51.374;10.662;2023-11-18T08:50:13;98035.53;;;5.63;86.60
72677;BME280;60755;51.374;10.662;2023-11-18T08:52:40;98029.44;;;5.55;86.88
72677;BME280;60755;51.374;10.662;2023-11-18T08:55:10;98029.16;;;5.50;85.20
72677;BME280;60755;51.374;10.662;2023-11-18T08:57:46;98014.53;;;5.34;85.67
72677;BME280;60755;51.374;10.662;2023-11-18T09:00:24;98019.41;;;5.23;86.47
72677;BME280;60755;51.374;10.662;2023-11-18T09:03:14;98014.34;;;5.36;85.91
72677;BME280;60755;51.374;10.662;2023-11-18T09:05:51;98022.44;;;5.41;86.58
72677;BME280;60755;51.374;10.662;2023-11-18T09:08:24;98007.81;;;5.40;86.62
72677;BME280;60755;51.374;10.662;2023-11-18T09:10:53;98007.69;;;5.48;85.73
72677;BME280;60755;51.374;10.662;2023-11-18T09:13:22;98006.28;;;5.67;86.91
72677;BME280;60755;51.374;10.662;2023-11-18T09:15:51;98004.25;;;5.63;86.00
72677;BME280;60755;51.374;10.662;2023-11-18T09:18:18;98015.91;;;5.67;86.21
72677;BME280;60755;51.374;10.662;2023-11-18T09:20:47;98018.34;;;6.04;84.18
72677;BME280;60755;51.374;10.662;2023-11-18T09:23:15;98015.03;;;6.17;83.05
72677;BME280;60755;51.374;10.662;2023-11-18T09:25:42;98012.22;;;6.40;82.22
72677;BME280;60755;51.374;10.662;2023-11-18T09:28:13;98016.69;;;6.46;81.75
72677;BME280;60755;51.374;10.662;2023-11-18T09:30:45;98012.22;;;6.40;80.56
72677;BME280;60755;51.374;10.662;2023-11-18T09:33:19;98006.53;;;6.30;80.36
72677;BME280;60755;51.374;10.662;2023-11-18T09:35:55;98012.03;;;6.41;80.13
72677;BME280;60755;51.374;10.662;2023-11-18T09:38:25;98012.94;;;6.27;80.25
72677;BME280;60755;51.374;10.662;2023-11-18T09:40:55;98001.69;;;6.27;79.92
72677;BME280;60755;51.374;10.662;2023-11-18T09:43:24;98003.13;;;6.08;81.33
72677;BME280;60755;51.374;10.662;2023-11-18T09:45:56;97991.53;;;6.10;82.40
72677;BME280;60755;51.374;10.662;2023-11-18T09:48:29;97989.00;;;6.24;81.64
72677;BME280;60755;51.374;10.662;2023-11-18T09:51:07;97993.53;;;6.64;80.13
72677;BME280;60755;51.374;10.662;2023-11-18T09:53:37;97983.13;;;6.71;77.93
72677;BME280;60755;51.374;10.662;2023-11-18T09:56:10;97985.13;;;6.69;81.50
72677;BME280;60755;51.374;10.662;2023-11-18T09:58:51;97986.41;;;6.80;79.71
72677;BME280;60755;51.374;10.662;2023-11-18T10:01:26;97977.84;;;6.64;79.79
72677;BME280;60755;51.374;10.662;2023-11-18T10:03:59;97982.56;;;6.76;81.31
72677;BME280;60755;51.374;10.662;2023-11-18T10:06:34;97980.06;;;6.95;79.18
72677;BME280;60755;51.374;10.662;2023-11-18T10:09:03;97989.34;;;6.98;79.82
72677;BME280;60755;51.374;10.662;2023-11-18T10:11:42;97987.59;;;7.12;79.54
72677;BME280;60755;51.374;10.662;2023-11-18T10:14:13;97999.69;;;7.19;79.96
72677;BME280;60755;51.374;10.662;2023-11-18T10:16:44;97986.44;;;7.27;78.35
72677;BME280;60755;51.374;10.662;2023-11-18T10:19:14;97992.16;;;7.03;78.34
72677;BME280;60755;51.374;10.662;2023-11-18T10:21:43;97984.63;;;6.87;80.19
72677;BME280;60755;51.374;10.662;2023-11-18T10:24:15;97979.72;;;6.70;79.96
72677;BME280;60755;51.374;10.662;2023-11-18T10:26:46;97980.09;;;6.67;80.38
72677;BME280;60755;51.374;10.662;2023-11-18T10:29:21;97972.56;;;6.51;80.13
72677;BME280;60755;51.374;10.662;2023-11-18T10:32:03;97976.03;;;6.58;80.58
72677;BME280;60755;51.374;10.662;2023-11-18T10:34:34;97974.41;;;6.57;80.79
72677;BME280;60755;51.374;10.662;2023-11-18T10:37:02;97976.19;;;6.50;82.12
72677;BME280;60755;51.374;10.662;2023-11-18T10:39:29;97967.84;;;6.40;81.48
72677;BME280;60755;51.374;10.662;2023-11-18T10:41:59;97953.94;;;6.33;82.61
72677;BME280;60755;51.374;10.662;2023-11-18T10:44:27;97967.41;;;6.08;83.88
72677;BME280;60755;51.374;10.662;2023-11-18T10:46:56;97972.25;;;6.11;82.91
72677;BME280;60755;51.374;10.662;2023-11-18T10:49:24;97957.66;;;5.96;83.53
72677;BME280;60755;51.374;10.662;2023-11-18T10:51:53;97949.53;;;5.69;83.43
72677;BME280;60755;51.374;10.662;2023-11-18T10:54:22;97958.94;;;5.64;85.81
72677;BME280;60755;51.374;10.662;2023-11-18T10:56:52;97959.69;;;5.79;84.66
72677;BME280;60755;51.374;10.662;2023-11-18T10:59:22;97949.94;;;5.87;83.82
72677;BME280;60755;51.374;10.662;2023-11-18T11:01:51;97952.34;;;5.89;84.28
72677;BME280;60755;51.374;10.662;2023-11-18T11:04:20;97955.59;;;5.91;84.54
72677;BME280;60755;51.374;10.662;2023-11-18T11:06:48;97953.69;;;6.00;84.73
72677;BME280;60755;51.374;10.662;2023-11-18T11:09:19;97956.97;;;6.08;85.62
72677;BME280;60755;51.374;10.662;2023-11-18T11:11:53;97964.44;;;6.11;85.19
72677;BME280;60755;51.374;10.662;2023-11-18T11:14:22;97952.84;;;6.21;84.31
72677;BME280;60755;51.374;10.662;2023-11-18T11:16:57;97947.69;;;6.27;82.75
72677;BME280;60755;51.374;10.662;2023-11-18T11:19:30;97942.00;;;6.45;82.95
72677;BME280;60755;51.374;10.662;2023-11-18T11:22:05;97936.19;;;6.50;82.96
72677;BME280;60755;51.374;10.662;2023-11-18T11:24:45;97931.16;;;6.48;82.42
72677;BME280;60755;51.374;10.662;2023-11-18T11:27:22;97931.97;;;6.21;82.76
72677;BME280;60755;51.374;10.662;2023-11-18T11:30:01;97936.94;;;6.15;83.06
72677;BME280;60755;51.374;10.662;2023-11-18T11:32:44;97923.16;;;6.22;83.81
72677;BME280;60755;51.374;10.662;2023-11-18T11:35:19;97905.34;;;6.32;82.23
72677;BME280;60755;51.374;10.662;2023-11-18T11:37:50;97906.16;;;6.32;82.76
72677;BME280;60755;51.374;10.662;2023-11-18T11:40:20;97896.06;;;6.23;83.56
72677;BME280;60755;51.374;10.662;2023-11-18T11:42:50;97900.06;;;6.19;82.88
72677;BME280;60755;51.374;10.662;2023-11-18T11:45:22;97908.31;;;6.50;81.65
72677;BME280;60755;51.374;10.662;2023-11-18T11:47:55;97901.13;;;6.31;81.66
72677;BME280;60755;51.374;10.662;2023-11-18T11:50:48;97891.28;;;6.33;82.32
72677;BME280;60755;51.374;10.662;2023-11-18T11:53:22;97883.97;;;6.43;81.45
72677;BME280;60755;51.374;10.662;2023-11-18T11:55:53;97885.06;;;6.62;81.99
72677;BME280;60755;51.374;10.662;2023-11-18T11:58:31;97884.50;;;6.73;80.46
72677;BME280;60755;51.374;10.662;2023-11-18T12:01:15;97871.59;;;6.65;80.64
72677;BME280;60755;51.374;10.662;2023-11-18T12:03:46;97879.75;;;6.49;82.33
72677;BME280;60755;51.374;10.662;2023-11-18T12:06:20;97880.63;;;6.62;82.36
72677;BME280;60755;51.374;10.662;2023-11-18T12:08:51;97885.94;;;6.76;80.63
72677;BME280;60755;51.374;10.662;2023-11-18T12:11:18;97874.69;;;6.82;81.92
72677;BME280;60755;51.374;10.662;2023-11-18T12:14:00;97864.28;;;6.88;81.22
72677;BME280;60755;51.374;10.662;2023-11-18T12:16:57;97849.44;;;7.02;79.78
72677;BME280;60755;51.374;10.662;2023-11-18T12:19:30;97833.41;;;7.18;78.42
72677;BME280;60755;51.374;10.662;2023-11-18T12:22:03;97828.59;;;7.15;79.23
72677;BME280;60755;51.374;10.662;2023-11-18T12:24:38;97816.69;;;6.99;80.80
72677;BME280;60755;51.374;10.662;2023-11-18T12:27:09;97819.50;;;6.98;79.02
72677;BME280;60755;51.374;10.662;2023-11-18T12:29:41;97813.63;;;6.83;80.15
72677;BME280;60755;51.374;10.662;2023-11-18T12:32:09;97820.66;;;6.82;79.87
72677;BME280;60755;51.374;10.662;2023-11-18T12:34:51;97830.09;;;6.83;80.73
72677;BME280;60755;51.374;10.662;2023-11-18T12:37:45;97832.13;;;6.88;79.78
72677;BME280;60755;51.374;10.662;2023-11-18T12:40:35;97844.81;;;7.04;78.55
72677;BME280;60755;51.374;10.662;2023-11-18T12:43:10;97836.50;;;6.81;78.23
72677;BME280;60755;51.374;10.662;2023-11-18T12:46:12;97842.56;;;6.88;79.37
72677;BME280;60755;51.374;10.662;2023-11-18T12:48:49;97837.13;;;6.89;79.67
72677;BME280;60755;51.374;10.662;2023-11-18T12:51:17;97828.78;;;7.07;79.68
72677;BME280;60755;51.374;10.662;2023-11-18T12:53:49;97823.75;;;7.12;79.21
72677;BME280;60755;51.374;10.662;2023-11-18T12:56:17;97825.38;;;7.20;77.83
72677;BME280;60755;51.374;10.662;2023-11-18T12:58:45;97819.94;;;7.15;76.97
72677;BME280;60755;51.374;10.662;2023-11-18T13:01:13;97821.16;;;7.19;78.18
72677;BME280;60755;51.374;10.662;2023-11-18T13:03:42;97823.72;;;6.99;78.20
72677;BME280;60755;51.374;10.662;2023-11-18T13:06:10;97820.34;;;7.25;80.13
72677;BME280;60755;51.374;10.662;2023-11-18T13:08:38;97819.75;;;7.23;78.20
72677;BME280;60755;51.374;10.662;2023-11-18T13:11:07;97823.63;;;7.47;78.49